createdAt,value
2023-11-18T00:01:46.178Z,44.80
2023-11-18T00:04:18.960Z,51.67
2023-11-18T00:06:46.124Z,47.10
2023-11-18T00:09:15.921Z,47.27
2023-11-18T00:11:43.749Z,51.23
2023-11-18T00:14:14.367Z,50.60
2023-11-18T00:16:41.910Z,45.67
2023-11-18T00:19:10.443Z,45.77
2023-11-18T00:21:37.653Z,43.60
2023-11-18T00:24:06.215Z,39.93
2023-11-18T00:26:33.301Z,35.50
2023-11-18T00:29:01.697Z,40.23
2023-11-18T00:31:29.093Z,35.33
2023-11-18T00:33:56.149Z,34.37
2023-11-18T00:36:23.222Z,37.17
2023-11-18T00:38:50.501Z,37.23
2023-11-18T00:41:18.557Z,39.50
2023-11-18T00:43:45.806Z,38.27
2023-11-18T00:46:13.032Z,36.93
2023-11-18T00:48:40.181Z,36.97
2023-11-18T00:51:07.557Z,37.13
2023-11-18T00:53:34.835Z,35.53
2023-11-18T00:56:02.847Z,36.03
2023-11-18T00:58:30.224Z,40.20
2023-11-18T01:00:57.517Z,37.33
2023-11-18T01:03:24.553Z,33.10
2023-11-18T01:05:51.730Z,33.33
2023-11-18T01:08:19.150Z,32.90
2023-11-18T01:10:46.329Z,32.53
2023-11-18T01:13:13.227Z,31.43
2023-11-18T01:15:40.217Z,33.97
2023-11-18T01:18:07.755Z,31.87
2023-11-18T01:20:35.641Z,33.23
2023-11-18T01:23:02.424Z,34.40
2023-11-18T01:25:30.732Z,35.70
2023-11-18T01:27:57.541Z,31.07
2023-11-18T01:30:25.074Z,33.53
2023-11-18T01:32:52.081Z,37.23
2023-11-18T01:35:19.455Z,35.93
2023-11-18T01:37:46.616Z,32.37
2023-11-18T01:40:14.331Z,34.47
2023-11-18T01:42:44.282Z,32.57
2023-11-18T01:45:13.018Z,35.63
2023-11-18T01:47:41.069Z,36.83
2023-11-18T01:50:10.307Z,34.13
2023-11-18T01:52:37.418Z,34.93
2023-11-18T01:55:07.730Z,34.13
2023-11-18T01:57:35.510Z,33.00
2023-11-18T02:00:07.368Z,36.83
2023-11-18T02:02:40.945Z,33.03
2023-11-18T02:05:08.883Z,32.57
2023-11-18T02:07:39.703Z,37.70
2023-11-18T02:10:10.375Z,36.33
2023-11-18T02:12:51.930Z,37.00
2023-11-18T02:15:22.027Z,32.30
2023-11-18T02:17:51.130Z,33.10
2023-11-18T02:20:22.340Z,35.80
2023-11-18T02:22:49.322Z,30.00
2023-11-18T02:25:19.710Z,34.60
2023-11-18T02:27:47.206Z,36.70
2023-11-18T02:30:18.786Z,33.60
2023-11-18T02:32:54.930Z,38.00
2023-11-18T02:35:29.359Z,33.17
2023-11-18T02:37:58.401Z,33.70
2023-11-18T02:40:33.561Z,34.27
2023-11-18T02:43:02.179Z,32.07
2023-11-18T02:45:29.690Z,31.20
2023-11-18T02:47:58.533Z,32.40
2023-11-18T02:50:28.442Z,32.20
2023-11-18T02:52:55.342Z,31.20
2023-11-18T02:55:24.061Z,31.03
2023-11-18T02:57:52.723Z,29.77
2023-11-18T03:00:23.055Z,30.60
2023-11-18T03:02:52.619Z,31.27
2023-11-18T03:05:20.096Z,30.70
2023-11-18T03:07:50.779Z,33.67
2023-11-18T03:10:24.079Z,31.47
2023-11-18T03:12:53.641Z,31.60
2023-11-18T03:15:22.969Z,34.40
2023-11-18T03:17:51.747Z,33.10
2023-11-18T03:20:21.062Z,31.33
2023-11-18T03:22:48.570Z,30.97
2023-11-18T03:25:15.981Z,30.90
2023-11-18T03:27:43.347Z,32.87
2023-11-18T03:30:10.829Z,33.07
2023-11-18T03:32:41.136Z,28.87
2023-11-18T03:35:10.456Z,34.27
2023-11-18T03:37:40.241Z,32.87
2023-11-18T03:40:09.798Z,34.57
2023-11-18T03:42:38.094Z,30.57
2023-11-18T03:45:06.068Z,27.67
2023-11-18T03:47:33.090Z,34.17
2023-11-18T03:50:00.419Z,30.90
2023-11-18T03:52:28.702Z,31.70
2023-11-18T03:54:56.227Z,30.43
2023-11-18T03:57:23.095Z,33.33
2023-11-18T03:59:50.312Z,32.03
2023-11-18T04:02:17.120Z,33.93
2023-11-18T04:04:44.229Z,32.90
2023-11-18T04:07:10.977Z,32.57
2023-11-18T04:09:38.007Z,30.30
2023-11-18T04:12:06.450Z,30.33
2023-11-18T04:14:33.655Z,31.40
2023-11-18T04:17:01.020Z,33.97
2023-11-18T04:19:28.280Z,31.23
2023-11-18T04:21:55.425Z,31.83
2023-11-18T04:24:22.507Z,34.43
2023-11-18T04:26:50.358Z,32.13
2023-11-18T04:29:17.432Z,33.30
2023-11-18T04:31:44.255Z,30.67
2023-11-18T04:34:11.362Z,29.63
2023-11-18T04:36:38.313Z,29.23
2023-11-18T04:39:05.420Z,33.60
2023-11-18T04:41:32.816Z,32.03
2023-11-18T04:44:00.251Z,31.13
2023-11-18T04:46:27.131Z,29.43
2023-11-18T04:48:56.010Z,31.90
2023-11-18T04:51:23.593Z,36.27
2023-11-18T04:53:50.653Z,35.33
2023-11-18T04:56:19.409Z,35.10
2023-11-18T04:58:48.540Z,39.77
2023-11-18T05:01:16.014Z,37.93
2023-11-18T05:03:43.289Z,35.70
2023-11-18T05:06:10.127Z,36.17
2023-11-18T05:08:37.612Z,36.47
2023-11-18T05:11:06.189Z,38.20
2023-11-18T05:13:34.962Z,32.93
2023-11-18T05:16:02.300Z,35.40
2023-11-18T05:18:34.598Z,35.73
2023-11-18T05:21:01.743Z,38.67
2023-11-18T05:23:30.598Z,34.90
2023-11-18T05:25:57.628Z,37.20
2023-11-18T05:28:25.659Z,37.07
2023-11-18T05:30:53.421Z,39.90
2023-11-18T05:33:21.380Z,32.20
2023-11-18T05:35:51.260Z,36.13
2023-11-18T05:38:21.607Z,35.97
2023-11-18T05:40:58.399Z,38.73
2023-11-18T05:43:30.492Z,37.23
2023-11-18T05:46:17.833Z,38.13
2023-11-18T05:48:45.681Z,36.57
2023-11-18T05:51:12.832Z,38.23
2023-11-18T05:53:46.388Z,38.07
2023-11-18T05:56:14.217Z,40.73
2023-11-18T05:58:41.616Z,37.20
2023-11-18T06:01:09.052Z,38.73
2023-11-18T06:03:40.392Z,41.90
2023-11-18T06:06:12.754Z,37.73
2023-11-18T06:08:44.114Z,40.47
2023-11-18T06:11:16.056Z,36.57
2023-11-18T06:13:48.099Z,44.43
2023-11-18T06:16:27.852Z,43.47
2023-11-18T06:18:56.767Z,39.20
2023-11-18T06:21:26.195Z,43.30
2023-11-18T06:23:56.105Z,42.17
2023-11-18T06:26:23.424Z,45.97
2023-11-18T06:28:50.554Z,38.70
2023-11-18T06:31:17.475Z,41.67
2023-11-18T06:33:47.149Z,40.87
2023-11-18T06:36:23.690Z,40.83
2023-11-18T06:38:52.512Z,44.93
2023-11-18T06:41:38.048Z,39.70
2023-11-18T06:44:14.205Z,38.57
2023-11-18T06:46:41.724Z,39.87
2023-11-18T06:49:12.092Z,43.87
2023-11-18T06:51:39.658Z,44.00
2023-11-18T06:54:11.549Z,39.70
2023-11-18T06:56:46.767Z,38.60
2023-11-18T06:59:16.232Z,39.63
2023-11-18T07:01:45.639Z,37.20
2023-11-18T07:04:15.597Z,39.87
2023-11-18T07:06:44.188Z,37.33
2023-11-18T07:09:15.450Z,37.73
2023-11-18T07:11:42.399Z,39.40
2023-11-18T07:14:10.746Z,35.70
2023-11-18T07:16:42.807Z,36.43
2023-11-18T07:19:16.044Z,41.43
2023-11-18T07:21:42.950Z,43.37
2023-11-18T07:24:10.168Z,40.53
2023-11-18T07:26:37.033Z,40.00
2023-11-18T07:29:04.147Z,38.80
2023-11-18T07:31:31.022Z,40.23
2023-11-18T07:33:58.131Z,36.33
2023-11-18T07:36:25.018Z,36.53
2023-11-18T07:38:52.878Z,39.97
2023-11-18T07:41:25.739Z,49.33
2023-11-18T07:43:57.024Z,40.30
2023-11-18T07:46:24.691Z,36.87
2023-11-18T07:48:56.653Z,37.20
2023-11-18T07:51:24.177Z,38.37
2023-11-18T07:53:51.510Z,36.40
2023-11-18T07:56:18.697Z,39.70
2023-11-18T07:58:48.600Z,39.20
2023-11-18T08:01:19.134Z,43.13
2023-11-18T08:03:46.310Z,42.80
2023-11-18T08:06:13.837Z,43.77
2023-11-18T08:08:41.944Z,46.93
2023-11-18T08:11:13.230Z,50.93
2023-11-18T08:13:40.738Z,47.27
2023-11-18T08:16:09.748Z,49.87
2023-11-18T08:18:37.919Z,56.20
2023-11-18T08:21:08.043Z,55.40
2023-11-18T08:23:35.464Z,53.57
2023-11-18T08:26:02.937Z,53.13
2023-11-18T08:28:29.856Z,55.33
2023-11-18T08:30:56.960Z,54.60
2023-11-18T08:33:25.705Z,53.33
2023-11-18T08:35:53.026Z,51.90
2023-11-18T08:38:20.917Z,53.70
2023-11-18T08:40:49.752Z,48.80
2023-11-18T08:43:17.721Z,47.23
2023-11-18T08:45:46.030Z,46.73
2023-11-18T08:48:13.063Z,45.57
2023-11-18T08:50:44.421Z,51.57
2023-11-18T08:53:13.168Z,48.97
2023-11-18T08:55:41.754Z,48.10
2023-11-18T08:58:19.849Z,41.80
2023-11-18T09:00:49.784Z,40.17
2023-11-18T09:03:35.392Z,41.00
2023-11-18T09:06:06.065Z,36.60
2023-11-18T09:08:37.588Z,36.43
2023-11-18T09:11:07.395Z,31.27
2023-11-18T09:13:36.317Z,36.33
2023-11-18T09:16:11.017Z,31.37
2023-11-18T09:18:44.312Z,32.97
2023-11-18T09:21:20.742Z,31.27
2023-11-18T09:23:49.146Z,32.67
2023-11-18T09:26:17.801Z,32.63
2023-11-18T09:28:47.737Z,31.70
2023-11-18T09:31:15.828Z,29.70
2023-11-18T09:33:52.970Z,32.40
2023-11-18T09:36:21.482Z,27.57
2023-11-18T09:38:49.431Z,24.67
2023-11-18T09:41:18.041Z,28.43
2023-11-18T09:43:47.233Z,24.60
2023-11-18T09:46:24.906Z,26.70
2023-11-18T09:49:01.197Z,26.63
2023-11-18T09:51:34.231Z,29.07
2023-11-18T09:54:07.339Z,30.27
2023-11-18T09:57:11.207Z,31.87
2023-11-18T09:59:45.812Z,30.43
2023-11-18T10:02:13.764Z,31.37
2023-11-18T10:04:41.292Z,23.93
2023-11-18T10:07:08.630Z,23.87
2023-11-18T10:09:44.160Z,19.20
2023-11-18T10:12:17.706Z,19.70
2023-11-18T10:14:47.193Z,25.53
2023-11-18T10:17:16.105Z,25.03
2023-11-18T10:19:59.175Z,22.10
2023-11-18T10:22:30.916Z,24.07
2023-11-18T10:24:59.143Z,23.17
2023-11-18T10:27:27.666Z,21.80
2023-11-18T10:30:05.559Z,24.30
2023-11-18T10:32:37.039Z,21.37
2023-11-18T10:35:07.796Z,23.03
2023-11-18T10:37:40.644Z,18.77
2023-11-18T10:40:09.490Z,20.20
2023-11-18T10:42:36.528Z,20.57
2023-11-18T10:45:04.261Z,20.77
2023-11-18T10:47:39.940Z,17.23
2023-11-18T10:50:11.214Z,19.30
2023-11-18T10:52:42.177Z,19.33
2023-11-18T10:55:13.515Z,18.77
2023-11-18T10:57:43.589Z,20.87
2023-11-18T11:00:14.934Z,16.57
2023-11-18T11:02:43.167Z,18.53
2023-11-18T11:05:19.907Z,18.97
2023-11-18T11:07:50.079Z,16.38
2023-11-18T11:10:17.715Z,18.15
2023-11-18T11:12:54.200Z,14.50
2023-11-18T11:15:30.087Z,17.08
2023-11-18T11:18:10.016Z,19.45
2023-11-18T11:20:43.853Z,17.90
2023-11-18T11:23:29.509Z,13.50
2023-11-18T11:26:29.448Z,16.35
2023-11-18T11:29:10.997Z,13.65
2023-11-18T11:31:42.811Z,13.50
2023-11-18T11:34:20.232Z,13.57
2023-11-18T11:36:53.720Z,13.57
2023-11-18T11:39:27.184Z,13.03
2023-11-18T11:41:58.570Z,14.07
2023-11-18T11:44:32.940Z,16.10
2023-11-18T11:47:02.168Z,13.77
2023-11-18T11:49:46.168Z,14.87
2023-11-18T11:52:32.308Z,13.90
2023-11-18T11:55:14.175Z,13.13
2023-11-18T11:57:44.004Z,14.50
2023-11-18T12:00:18.326Z,14.07
2023-11-18T12:02:58.018Z,12.97
2023-11-18T12:05:28.060Z,13.47
2023-11-18T12:07:56.871Z,12.97
2023-11-18T12:10:33.663Z,12.10
2023-11-18T12:13:20.906Z,14.27
2023-11-18T12:15:58.155Z,16.17
2023-11-18T12:18:26.356Z,14.93
2023-11-18T12:20:57.568Z,14.80
2023-11-18T12:23:26.571Z,13.80
2023-11-18T12:25:55.830Z,15.00
2023-11-18T12:28:35.557Z,11.87
2023-11-18T12:31:14.429Z,14.63
2023-11-18T12:34:01.919Z,16.17
2023-11-18T12:36:56.435Z,14.27
2023-11-18T12:39:41.854Z,15.60
2023-11-18T12:42:20.834Z,16.97
2023-11-18T12:45:15.134Z,14.73
2023-11-18T12:47:50.128Z,17.33
2023-11-18T12:50:25.914Z,16.60
2023-11-18T12:52:53.779Z,16.17
2023-11-18T12:55:21.489Z,15.07
2023-11-18T12:57:49.457Z,18.00
2023-11-18T13:00:21.913Z,17.07
2023-11-18T13:02:50.578Z,16.60
2023-11-18T13:05:17.830Z,13.60
2023-11-18T13:07:46.075Z,16.83
2023-11-18T13:10:16.582Z,14.83
2023-11-18T13:12:46.412Z,20.07
2023-11-18T13:15:13.293Z,14.93
2023-11-18T13:17:42.024Z,16.30
2023-11-18T13:20:16.133Z,14.87
2023-11-18T13:22:48.100Z,16.37
2023-11-18T13:25:16.052Z,16.97
2023-11-18T13:27:43.199Z,17.40
2023-11-18T13:30:14.554Z,17.73
2023-11-18T13:32:43.318Z,16.27
2023-11-18T13:35:14.505Z,15.93
2023-11-18T13:37:45.333Z,16.67
2023-11-18T13:40:14.210Z,16.13
2023-11-18T13:42:43.306Z,15.67
2023-11-18T13:45:24.039Z,15.83
2023-11-18T13:48:00.640Z,17.47
2023-11-18T13:50:28.076Z,18.40
2023-11-18T13:52:55.736Z,17.13
2023-11-18T13:55:29.224Z,18.17
2023-11-18T13:57:59.098Z,17.23
2023-11-18T14:00:31.370Z,17.97
2023-11-18T14:03:05.828Z,16.77
2023-11-18T14:05:34.897Z,18.70
2023-11-18T14:08:10.578Z,18.43
2023-11-18T14:10:42.291Z,20.93
2023-11-18T14:13:18.216Z,18.37
2023-11-18T14:15:46.421Z,15.73
2023-11-18T14:18:15.239Z,20.37
2023-11-18T14:20:42.360Z,17.37
2023-11-18T14:23:09.907Z,17.63
2023-11-18T14:25:37.363Z,16.47
2023-11-18T14:28:04.978Z,18.37
2023-11-18T14:30:31.904Z,29.37
2023-11-18T14:32:59.018Z,41.80
2023-11-18T14:35:30.011Z,54.77
2023-11-18T14:37:57.924Z,47.43
2023-11-18T14:40:25.461Z,48.83
2023-11-18T14:42:53.261Z,36.10
2023-11-18T14:45:20.813Z,28.57
2023-11-18T14:47:49.140Z,28.57
2023-11-18T14:50:20.966Z,30.63
2023-11-18T14:52:50.000Z,32.17
2023-11-18T14:55:18.490Z,31.10
2023-11-18T14:57:45.998Z,27.17
2023-11-18T15:00:20.106Z,30.17
2023-11-18T15:02:51.807Z,29.13
2023-11-18T15:05:20.422Z,33.10
2023-11-18T15:07:51.154Z,39.27
2023-11-18T15:10:23.209Z,44.87
2023-11-18T15:12:54.341Z,50.87
2023-11-18T15:15:23.164Z,71.63
2023-11-18T15:17:50.850Z,42.63
2023-11-18T15:20:24.502Z,34.23
2023-11-18T15:22:51.948Z,50.67
2023-11-18T15:25:19.057Z,51.00
2023-11-18T15:27:47.005Z,56.53
2023-11-18T15:30:15.274Z,52.00
2023-11-18T15:32:44.082Z,60.23
2023-11-18T15:35:12.159Z,68.87
2023-11-18T15:37:42.679Z,61.83
2023-11-18T15:40:12.081Z,71.80
2023-11-18T15:42:40.512Z,64.70
2023-11-18T15:45:15.518Z,66.07
2023-11-18T15:47:47.201Z,56.23
2023-11-18T15:50:19.801Z,51.03
2023-11-18T15:52:50.546Z,55.00
2023-11-18T15:55:18.993Z,61.57
2023-11-18T15:57:56.379Z,49.20
2023-11-18T16:00:27.701Z,47.77
2023-11-18T16:02:59.688Z,48.83
2023-11-18T16:05:29.405Z,43.27
2023-11-18T16:07:56.883Z,46.93
2023-11-18T16:10:25.754Z,42.37
2023-11-18T16:13:00.139Z,47.13
2023-11-18T16:15:31.420Z,39.93
2023-11-18T16:17:59.701Z,32.00
2023-11-18T16:20:29.319Z,29.87
2023-11-18T16:22:58.265Z,62.63
2023-11-18T16:25:31.383Z,61.70
2023-11-18T16:28:01.211Z,53.60
2023-11-18T16:30:33.556Z,82.77
2023-11-18T16:33:08.826Z,90.53
2023-11-18T16:35:37.420Z,58.63
2023-11-18T16:38:04.930Z,57.00
2023-11-18T16:40:34.343Z,45.87
2023-11-18T16:43:02.431Z,34.57
2023-11-18T16:45:29.836Z,34.60
2023-11-18T16:47:56.998Z,29.37
2023-11-18T16:50:25.820Z,28.03
2023-11-18T16:52:53.472Z,26.73
2023-11-18T16:55:23.842Z,38.27
2023-11-18T16:57:53.989Z,38.83
2023-11-18T17:00:26.389Z,34.37
2023-11-18T17:02:59.995Z,28.97
2023-11-18T17:05:30.848Z,28.43
2023-11-18T17:07:59.059Z,23.47
2023-11-18T17:10:26.176Z,26.20
2023-11-18T17:12:53.163Z,22.83
2023-11-18T17:15:20.706Z,31.83
2023-11-18T17:17:49.532Z,29.40
2023-11-18T17:20:18.037Z,27.20
2023-11-18T17:22:45.625Z,30.20
2023-11-18T17:25:17.040Z,25.10
2023-11-18T17:27:45.796Z,27.77
2023-11-18T17:30:17.342Z,24.03
2023-11-18T17:32:46.693Z,26.63
2023-11-18T17:35:15.502Z,23.37
2023-11-18T17:37:44.504Z,25.73
2023-11-18T17:40:12.804Z,24.20
2023-11-18T17:42:40.693Z,25.93
2023-11-18T17:45:12.896Z,22.37
2023-11-18T17:47:42.958Z,27.40
2023-11-18T17:50:13.583Z,20.33
2023-11-18T17:52:42.439Z,24.57
2023-11-18T17:55:10.132Z,20.10
2023-11-18T17:57:37.410Z,23.53
2023-11-18T18:00:12.948Z,28.63
2023-11-18T18:02:48.607Z,30.27
2023-11-18T18:05:16.170Z,26.40
2023-11-18T18:07:43.964Z,28.53
2023-11-18T18:10:13.319Z,30.80
2023-11-18T18:12:42.997Z,29.27
2023-11-18T18:15:12.296Z,31.53
2023-11-18T18:17:39.490Z,28.03
2023-11-18T18:20:10.925Z,25.83
2023-11-18T18:22:39.351Z,28.33
2023-11-18T18:25:07.117Z,31.40
2023-11-18T18:27:34.770Z,29.43
2023-11-18T18:30:02.791Z,52.27
2023-11-18T18:32:30.445Z,57.33
2023-11-18T18:34:58.631Z,52.73
2023-11-18T18:37:27.662Z,51.97
2023-11-18T18:39:56.089Z,29.63
2023-11-18T18:42:23.410Z,29.17
2023-11-18T18:44:51.314Z,25.43
2023-11-18T18:47:22.068Z,27.37
2023-11-18T18:49:49.662Z,26.30
2023-11-18T18:52:16.585Z,28.97
2023-11-18T18:54:43.966Z,23.17
2023-11-18T18:57:10.764Z,23.70
2023-11-18T18:59:38.653Z,25.77
2023-11-18T19:02:06.281Z,22.67
2023-11-18T19:04:33.462Z,25.17
2023-11-18T19:07:00.706Z,24.47
2023-11-18T19:09:27.873Z,27.00
2023-11-18T19:11:54.818Z,28.63
2023-11-18T19:14:22.091Z,34.83
2023-11-18T19:16:48.896Z,37.13
2023-11-18T19:19:18.229Z,38.30
2023-11-18T19:21:45.859Z,36.57
2023-11-18T19:24:15.571Z,35.87
2023-11-18T19:26:42.695Z,37.40
2023-11-18T19:29:09.836Z,37.87
2023-11-18T19:31:37.095Z,38.33
2023-11-18T19:34:04.522Z,37.37
2023-11-18T19:36:31.709Z,42.23
2023-11-18T19:38:58.768Z,55.00
2023-11-18T19:41:25.970Z,46.77
2023-11-18T19:43:54.288Z,46.20
2023-11-18T19:46:22.221Z,58.63
2023-11-18T19:48:49.248Z,64.27
2023-11-18T19:51:16.176Z,50.97
2023-11-18T19:53:43.228Z,44.80
2023-11-18T19:56:10.713Z,28.70
2023-11-18T19:58:37.911Z,23.57
2023-11-18T20:01:04.970Z,29.93
2023-11-18T20:03:32.372Z,30.97
2023-11-18T20:05:59.459Z,33.20
2023-11-18T20:08:26.586Z,32.87
2023-11-18T20:10:53.388Z,33.67
2023-11-18T20:13:20.942Z,36.03
2023-11-18T20:15:47.776Z,40.20
2023-11-18T20:18:14.967Z,29.00
2023-11-18T20:20:41.882Z,31.07
2023-11-18T20:23:10.190Z,33.77
2023-11-18T20:25:37.161Z,38.70
2023-11-18T20:28:04.389Z,45.00
2023-11-18T20:30:31.241Z,62.97
2023-11-18T20:32:58.563Z,39.40
2023-11-18T20:35:26.282Z,33.10
2023-11-18T20:37:53.743Z,29.83
2023-11-18T20:40:24.020Z,38.80
2023-11-18T20:42:51.715Z,32.13
2023-11-18T20:45:19.905Z,36.50
2023-11-18T20:47:48.217Z,40.03
2023-11-18T20:50:16.147Z,42.37
2023-11-18T20:52:43.809Z,32.57
2023-11-18T20:55:11.133Z,35.67
2023-11-18T20:57:38.705Z,30.83
2023-11-18T21:00:08.365Z,34.60
2023-11-18T21:02:36.865Z,37.23
2023-11-18T21:05:09.583Z,35.67
2023-11-18T21:07:37.098Z,35.57
2023-11-18T21:10:05.845Z,34.47
2023-11-18T21:12:33.674Z,33.60
2023-11-18T21:15:02.999Z,32.20
2023-11-18T21:17:30.420Z,32.47
2023-11-18T21:19:57.706Z,32.57
2023-11-18T21:22:24.838Z,34.80
2023-11-18T21:24:51.969Z,36.40
2023-11-18T21:27:19.157Z,35.77
2023-11-18T21:29:47.306Z,38.97
2023-11-18T21:32:14.664Z,34.93
2023-11-18T21:34:42.087Z,34.80
2023-11-18T21:37:12.526Z,37.67
2023-11-18T21:39:42.437Z,38.47
2023-11-18T21:42:11.909Z,33.50
2023-11-18T21:44:39.451Z,39.20
2023-11-18T21:47:11.349Z,37.30
2023-11-18T21:49:38.487Z,38.53
2023-11-18T21:52:06.038Z,38.37
2023-11-18T21:54:33.817Z,37.20
2023-11-18T21:57:00.859Z,42.37
2023-11-18T21:59:27.915Z,36.10
2023-11-18T22:01:58.307Z,38.03
2023-11-18T22:04:26.448Z,43.23
2023-11-18T22:06:55.274Z,36.80
2023-11-18T22:09:24.893Z,38.57
2023-11-18T22:11:52.366Z,38.30
2023-11-18T22:14:19.191Z,36.97
2023-11-18T22:16:47.021Z,40.77
2023-11-18T22:19:16.487Z,37.77
2023-11-18T22:21:43.993Z,38.77
2023-11-18T22:24:11.107Z,37.23
2023-11-18T22:26:38.960Z,37.33
2023-11-18T22:29:06.033Z,39.37
2023-11-18T22:31:33.360Z,39.33
2023-11-18T22:34:00.211Z,40.20
2023-11-18T22:36:27.455Z,39.40
2023-11-18T22:38:54.261Z,36.60
2023-11-18T22:41:21.358Z,40.23
2023-11-18T22:43:48.724Z,31.83
2023-11-18T22:46:15.907Z,32.37
2023-11-18T22:48:46.221Z,34.40
2023-11-18T22:51:13.417Z,32.40
2023-11-18T22:53:43.650Z,35.03
2023-11-18T22:56:11.228Z,31.90
2023-11-18T22:58:40.323Z,34.37
2023-11-18T23:01:11.849Z,31.87
2023-11-18T23:03:38.987Z,41.57
2023-11-18T23:08:36.541Z,37.43
2023-11-18T23:11:04.930Z,45.93
2023-11-18T23:13:31.671Z,38.47
2023-11-18T23:16:01.762Z,62.07
2023-11-18T23:18:29.923Z,47.47
2023-11-18T23:20:58.936Z,37.60
2023-11-18T23:23:26.131Z,34.53
2023-11-18T23:25:53.323Z,33.07
2023-11-18T23:28:20.321Z,31.60
2023-11-18T23:30:47.711Z,35.17
2023-11-18T23:33:14.742Z,32.33
2023-11-18T23:35:41.925Z,39.80
2023-11-18T23:38:08.748Z,46.77
2023-11-18T23:40:36.213Z,44.67
2023-11-18T23:43:08.463Z,48.93
2023-11-18T23:45:36.155Z,40.50
2023-11-18T23:48:03.459Z,39.83
2023-11-18T23:50:32.874Z,36.10
2023-11-18T23:52:59.872Z,38.90
2023-11-18T23:55:26.942Z,34.30
2023-11-18T23:57:54.162Z,38.87
